Milan, Pennsylvania
Current Conditions -  °F | °C
As of 3:53 PM on Friday 24 Oct 2014 (Local Time) from KELM Reporting Station
Clear Clear  
Wind Chill: 62°   Ceiling: Unl
Heat Index: 62°   Visibility: 10mi
Dew Point: 32°   Wind: 9mph
Humidity: 32%   Direction: 310°NW
Pressure: 29.89"   Gusts: NA
Location:  41.91°N, 76.52°W
Report Text: KELM 241953Z 31008KT 10SM CLR 17/00 A2989 RMK AO2 SLP120 T01670000
Loading
Personal Weather Stations






























Interactive Weather Map New forecast layout! Learn more

10-Day Weather Forecast

Advertisements
Track Severe Weather on mobile